ADDS METAR Data INFO
IDs: Format: Raw Decoded Include TAF

Data at: 0403 UTC 19 Jul 2018

KTYQ 190355Z AUTO 00000KT 10SM 17/15 A3005 RMK AO2 T01650148 402670112
KTYQ 190335Z AUTO 00000KT 10SM 17/15 A3005 RMK AO2 T01690153
KTYQ 190315Z AUTO 06004KT 10SM 17/15 A3004 RMK AO2 T01690152
KTYQ 190255Z AUTO 04005KT 10SM 17/15 A3004 RMK AO2 T01680154
KTYQ 190235Z AUTO 05004KT 10SM 17/16 A3004 RMK AO2 T01700155
KTYQ 190215Z AUTO 05003KT 10SM 18/16 A3004 RMK AO2 T01750160
KTYQ 190155Z AUTO 04004KT 10SM 18/16 A3003 RMK AO2 T01790160
KTYQ 190135Z AUTO 04004KT 10SM 19/16 A3003 RMK AO2 T01900161
KTYQ 190115Z AUTO 03004KT 10SM 19/17 A3003 RMK AO2 T01900170
KTYQ 190055Z AUTO 02004KT 10SM 20/17 A3003 RMK AO2 T01950171
KTYQ 190035Z AUTO 03004KT 10SM 21/16 A3003 RMK AO2 T02090164
KTYQ 190015Z AUTO 04004KT 10SM 23/16 A3003 RMK AO2 T02280158
KTYQ 182355Z AUTO 03006KT 10SM 25/15 A3003 RMK AO2 T02460152 10267 20244
KTYQ 182335Z AUTO 04007KT 10SM 25/16 A3003 RMK AO2 T02500158
KTYQ 182315Z AUTO 03007KT 10SM 25/15 A3002 RMK AO2 T02530153
KTYQ 182255Z AUTO 05007KT 10SM 26/16 A3003 RMK AO2 T02560158
KTYQ 182235Z AUTO 04006KT 10SM 26/15 A3003 RMK AO2 T02600152
KTYQ 182215Z AUTO 02006KT 10SM 26/15 A3003 RMK AO2 T02620154
KTYQ 182155Z AUTO 07004KT 10SM 26/15 A3003 RMK AO2 T02640153
KTYQ 182135Z AUTO 03008KT 10SM 27/15 A3004 RMK AO2 T02650153
KTYQ 182115Z AUTO 03006KT 10SM 27/15 A3005 RMK AO2 T02650150
KTYQ 182055Z AUTO 03006KT 10SM 27/15 A3006 RMK AO2 T02650145
KTYQ 182035Z AUTO 02007KT 10SM 27/16 A3006 RMK AO2 T02660158
KTYQ 182015Z AUTO 06004KT 10SM 26/15 A3007 RMK AO2 T02590147
KTYQ 181955Z AUTO 03006KT 10SM 26/16 A3007 RMK AO2 T02640160
KTYQ 181935Z AUTO 35006KT 10SM 26/15 A3007 RMK AO2 T02610153
KTYQ 181915Z AUTO 00000KT 10SM 26/14 A3008 RMK AO2 T02600143
KTYQ 181855Z AUTO 04006KT 10SM 26/15 A3008 RMK AO2 T02620149
KTYQ 181835Z AUTO 11005KT 10SM 26/14 A3008 RMK AO2 T02590137
KTYQ 181815Z AUTO 05005KT 10SM 26/15 A3008 RMK AO2 T02590150
KTYQ 181755Z AUTO 05006KT 10SM 25/15 A3008 RMK AO2 T02510145 10255 20140
KTYQ 181735Z AUTO 00000KT 10SM 25/14 A3009 RMK AO2 T02480139
KTYQ 181715Z AUTO 01003KT 10SM 25/15 A3010 RMK AO2 T02450153
KTYQ 181655Z AUTO 08003KT 10SM 24/15 A3011 RMK AO2 T02440148
KTYQ 181635Z AUTO 03006KT 10SM 24/15 A3011 RMK AO2 T02400154
KTYQ 181615Z AUTO 01005KT 10SM 24/16 A3011 RMK AO2 T02350156
KTYQ 181555Z AUTO 05005KT 10SM 23/16 A3011 RMK AO2 T02290162
KTYQ 181535Z AUTO 35003KT 10SM 23/16 A3011 RMK AO2 T02250156
KTYQ 181515Z AUTO 36003KT 10SM 22/16 A3011 RMK AO2 T02200157
KTYQ 181455Z AUTO 00000KT 10SM CLR 21/16 A3011 RMK AO2 T02100156
KTYQ 181435Z AUTO 00000KT 10SM CLR 20/16 A3011 RMK AO2 T02040156
KTYQ 181415Z AUTO 00000KT 10SM CLR 20/15 A3011 RMK AO2 T01950152
KTYQ 181355Z AUTO 05003KT 10SM CLR 19/15 A3011 RMK AO2 T01890151
KTYQ 181335Z AUTO 04005KT 10SM CLR 18/15 A3011 RMK AO2 T01800148
KTYQ 181315Z AUTO 02003KT 10SM CLR 17/14 A3011 RMK AO2 T01730144
KTYQ 181255Z AUTO 01003KT 10SM CLR 17/15 A3011 RMK AO2 T01660145
KTYQ 181235Z AUTO 36004KT 10SM CLR 16/14 A3011 RMK AO2 T01560138
KTYQ 181215Z AUTO 36004KT 10SM CLR 15/13 A3011 RMK AO2 T01460132
KTYQ 181155Z AUTO 36004KT 10SM CLR 14/13 A3011 RMK AO2 T01390130 10151 20112
KTYQ 181135Z AUTO 00000KT 10SM CLR 13/13 A3011 RMK AO2 T01330125
KTYQ 181115Z AUTO 34003KT 10SM CLR 13/12 A3011 RMK AO2 T01260119
KTYQ 181055Z AUTO 00000KT 10SM CLR 12/12 A3011 RMK AO2 T01220115
KTYQ 181035Z AUTO 33003KT 10SM CLR 12/11 A3011 RMK AO2 T01200114
KTYQ 181015Z AUTO 00000KT 10SM CLR 12/11 A3010 RMK AO2 T01230113
KTYQ 180955Z AUTO 33003KT 10SM CLR 13/12 A3010 RMK AO2 T01250115
KTYQ 180935Z AUTO 33003KT 10SM CLR 12/11 A3010 RMK AO2 T01200114
KTYQ 180915Z AUTO 00000KT 10SM CLR 12/12 A3010 RMK AO2 T01220117
KTYQ 180855Z AUTO 00000KT 10SM CLR 11/11 A3010 RMK AO2 T01130110
KTYQ 180835Z AUTO 27003KT 10SM CLR 12/11 A3010 RMK AO2 T01190114
KTYQ 180815Z AUTO 00000KT 10SM CLR 13/12 A3010 RMK AO2 T01270120
KTYQ 180755Z AUTO 32003KT 10SM CLR 13/12 A3010 RMK AO2 T01260118
KTYQ 180735Z AUTO 36003KT 10SM CLR 13/12 A3009 RMK AO2 T01260115
KTYQ 180715Z AUTO 35004KT 10SM CLR 13/12 A3009 RMK AO2 T01300117
KTYQ 180655Z AUTO 35003KT 10SM CLR 13/12 A3010 RMK AO2 T01300121
KTYQ 180635Z AUTO 35004KT 10SM CLR 14/12 A3010 RMK AO2 T01370123
KTYQ 180615Z AUTO 32004KT 10SM CLR 15/13 A3010 RMK AO2 T01470125
KTYQ 180555Z AUTO 33004KT 10SM CLR 15/13 A3010 RMK AO2 T01510127 10240 20150
KTYQ 180535Z AUTO 34005KT 10SM CLR 16/13 A3011 RMK AO2 T01550130
KTYQ 180515Z AUTO 34005KT 10SM CLR 16/13 A3010 RMK AO2 T01570134
KTYQ 180455Z AUTO 35006KT 10SM CLR 16/14 A3010 RMK AO2 T01570137
KTYQ 180435Z AUTO 34005KT 10SM CLR 16/14 A3010 RMK AO2 T01610137
KTYQ 180415Z AUTO 35005KT 10SM CLR 17/14 A3009 RMK AO2 T01650139
KTYQ 180355Z AUTO 36006KT 10SM SCT050 17/14 A3009 RMK AO2 T01650141 402800165
KTYQ 180335Z AUTO 36005KT 10SM SCT050 18/14 A3009 RMK AO2 T01750141
KTYQ 180315Z AUTO 36006KT 10SM SCT050 18/14 A3009 RMK AO2 T01800140
KTYQ 180255Z AUTO 01006KT 10SM CLR 19/14 A3008 RMK AO2 T01850142
KTYQ 180235Z AUTO 01005KT 10SM CLR 19/15 A3008 RMK AO2 T01920147
KTYQ 180215Z AUTO 36006KT 10SM CLR 20/15 A3007 RMK AO2 T01990150
KTYQ 180155Z AUTO 36007KT 10SM CLR 20/15 A3007 RMK AO2 T02040153
KTYQ 180135Z AUTO 01007KT 10SM CLR 21/16 A3006 RMK AO2 T02090155
KTYQ 180115Z AUTO 36006KT 10SM CLR 21/16 A3006 RMK AO2 T02140158
KTYQ 180055Z AUTO 01006KT 10SM SCT050 23/16 A3005 RMK AO2 T02260156
KTYQ 180035Z AUTO 36009KT 10SM BKN050 23/17 A3005 RMK AO2 T02320170
KTYQ 180015Z AUTO 36005KT 10SM SCT050 SCT065 24/18 A3004 RMK AO2 T02380181
KTYQ 172355Z AUTO 36004KT 10SM SCT050 SCT065 23/19 A3004 RMK AO2 T02330185 10280 20233
KTYQ 172335Z AUTO 36004KT 10SM CLR 25/18 A3003 RMK AO2 T02460181
KTYQ 172315Z AUTO 01005KT 10SM SCT060 SCT070 25/17 A3003 RMK AO2 T02480167
KTYQ 172255Z AUTO 36006KT 10SM SCT060 SCT070 26/17 A3004 RMK AO2 T02600168
KTYQ 172235Z AUTO 01007KT 10SM CLR 26/17 A3003 RMK AO2 T02640167
KTYQ 172215Z AUTO 36007KT 10SM SCT060 SCT070 26/16 A3004 RMK AO2 T02620155
KTYQ 172155Z AUTO 35013G16KT 10SM SCT060 BKN070 28/16 A3004 RMK AO2 T02760163
KTYQ 172135Z AUTO 32009KT 10SM SCT060 28/16 A3003 RMK AO2 T02780159
KTYQ 172115Z AUTO 33008G15KT 10SM SCT060 28/17 A3003 RMK AO2 T02780166
KTYQ 172055Z AUTO 33010G15KT 10SM SCT060 SCT120 27/16 A3004 RMK AO2 T02720160
KTYQ 172035Z AUTO 32009KT 10SM SCT060 SCT120 28/17 A3004 RMK AO2 T02750172
KTYQ 172015Z AUTO 31009G15KT 10SM SCT060 27/17 A3004 RMK AO2 T02740165
KTYQ 171955Z AUTO 32006KT 10SM SCT060 27/17 A3005 RMK AO2 T02730171
KTYQ 171935Z AUTO 33008KT 10SM CLR 28/17 A3006 RMK AO2 T02760166
KTYQ 171915Z AUTO 36008KT 10SM CLR 27/16 A3006 RMK AO2 T02730159
KTYQ 171855Z AUTO 34008KT 10SM CLR 27/17 A3006 RMK AO2 T02720169
KTYQ 171835Z AUTO 32009G14KT 10SM CLR 27/16 A3006 RMK AO2 T02740159
KTYQ 171815Z AUTO 35007KT 10SM CLR 27/16 A3006 RMK AO2 T02720162
KTYQ 171755Z AUTO 01006KT 10SM CLR 27/17 A3006 RMK AO2 T02690171 10269 20196
KTYQ 171735Z AUTO 35009KT 10SM CLR 27/16 A3007 RMK AO2 T02670163
KTYQ 171715Z AUTO 01004KT 10SM CLR 27/17 A3007 RMK AO2 T02650165
KTYQ 171655Z AUTO 36008KT 10SM CLR 26/17 A3007 RMK AO2 T02640171
KTYQ 171635Z AUTO 35007KT 10SM CLR 26/18 A3007 RMK AO2 T02620177
KTYQ 171615Z AUTO 36006KT 340V040 10SM CLR 26/18 A3008 RMK AO2 T02590176